Ceres, Washington
Current Conditions -  °F | °C
As of 10:35 AM on Thursday 23 Oct 2014 (Local Time) from KCLS Reporting Station
Light Rain Light Rain  
Wind Chill: 54°   Ceiling: Unl
Heat Index: 54°   Visibility: 2.5mi
Dew Point: 52°   Wind: 5mph
Humidity: 94%   Direction: 190°S
Pressure: 29.82"   Gusts: NA
Location:  46.6561°N, 122.993°W
Report Text: KCLS 231735Z AUTO 19004KT 2 1/2SM -RA FEW036 FEW050 SCT065 12/11 A2982 RMK AO2
Loading
Personal Weather Stations






























Interactive Weather Map
Tropical Storm Tracking
New forecast layout! Learn more

10-Day Weather Forecast

Advertisements
Track Severe Weather on mobile